Manteo, North Carolina
Current Conditions -  °F | °C
As of 7:19 AM on Sunday 25 Jan 2015 (Local Time) from KMQI Reporting Station
Clear Clear  
Wind Chill: 35°   Ceiling: Unl
Heat Index: 39°   Visibility: 10mi
Dew Point: 32°   Wind: 6mph
Humidity: 75%   Direction: 310°NW
Pressure: 29.91"   Gusts: NA
Location:  35.91°N, 75.68°W
Report Text: KMQI 251219Z AUTO 31005KT 10SM CLR 04/00 A2991 RMK AO2
Loading
Personal Weather Stations






























Interactive Weather Map New forecast layout! Learn more

10-Day Weather Forecast

Advertisements
Track Severe Weather on mobile